createdAt,value
2018-02-23T00:00:22.186Z,0.65
2018-02-23T00:02:49.689Z,0.58
2018-02-23T00:05:17.135Z,0.58
2018-02-23T00:07:48.391Z,0.59
2018-02-23T00:10:15.864Z,0.55
2018-02-23T00:12:43.317Z,0.57
2018-02-23T00:15:10.933Z,0.62
2018-02-23T00:17:38.599Z,0.52
2018-02-23T00:20:06.120Z,0.52
2018-02-23T00:22:42.341Z,0.47
2018-02-23T00:25:10.021Z,0.49
2018-02-23T00:27:37.490Z,0.52
2018-02-23T00:30:05.648Z,0.44
2018-02-23T00:32:40.295Z,0.52
2018-02-23T00:35:07.964Z,0.48
2018-02-23T00:37:35.538Z,0.43
2018-02-23T00:40:03.177Z,0.42
2018-02-23T00:42:30.732Z,0.45
2018-02-23T00:44:58.368Z,0.41
2018-02-23T00:47:25.891Z,0.47
2018-02-23T00:49:53.522Z,0.51
2018-02-23T00:52:21.053Z,0.46
2018-02-23T00:54:48.517Z,0.43
2018-02-23T00:57:16.101Z,0.41
2018-02-23T00:59:43.644Z,0.46
2018-02-23T01:02:11.294Z,0.44
2018-02-23T01:04:38.822Z,0.44
2018-02-23T01:07:07.113Z,0.40
2018-02-23T01:09:34.717Z,0.40
2018-02-23T01:12:02.372Z,0.35
2018-02-23T01:14:29.902Z,0.32
2018-02-23T01:16:57.534Z,0.34
2018-02-23T01:19:25.070Z,0.35
2018-02-23T01:21:52.946Z,0.26
2018-02-23T01:24:20.395Z,0.29
2018-02-23T01:26:47.875Z,0.27
2018-02-23T01:29:15.334Z,0.26
2018-02-23T01:31:42.828Z,0.34
2018-02-23T01:34:10.283Z,0.25
2018-02-23T01:36:37.740Z,0.19
2018-02-23T01:39:05.214Z,0.17
2018-02-23T01:41:32.670Z,0.22
2018-02-23T01:44:00.151Z,0.27
2018-02-23T01:46:27.612Z,0.24
2018-02-23T01:48:55.067Z,0.21
2018-02-23T01:51:22.538Z,0.24
2018-02-23T01:53:49.992Z,0.26
2018-02-23T01:56:17.442Z,0.16
2018-02-23T01:58:44.893Z,0.19
2018-02-23T02:01:12.444Z,0.22
2018-02-23T02:03:39.923Z,0.23
2018-02-23T02:06:07.391Z,0.13
2018-02-23T02:08:34.955Z,0.06
2018-02-23T02:11:02.414Z,0.07
2018-02-23T02:13:29.893Z,0.02
2018-02-23T02:15:57.358Z,-0.01
2018-02-23T02:18:24.850Z,0.10
2018-02-23T02:20:52.326Z,0.06
2018-02-23T02:23:19.783Z,0.04
2018-02-23T02:25:47.251Z,-0.06
2018-02-23T02:28:14.743Z,-0.13
2018-02-23T02:30:42.234Z,-0.17
2018-02-23T02:33:09.689Z,-0.18
2018-02-23T02:35:37.139Z,-0.23
2018-02-23T02:38:04.618Z,-0.22
2018-02-23T02:40:32.113Z,-0.20
2018-02-23T02:42:59.583Z,-0.25
2018-02-23T02:45:27.065Z,-0.23
2018-02-23T02:47:54.507Z,-0.25
2018-02-23T02:50:21.964Z,-0.27
2018-02-23T02:52:49.447Z,-0.25
2018-02-23T02:55:16.901Z,-0.29
2018-02-23T02:57:44.677Z,-0.33
2018-02-23T03:00:12.232Z,-0.42
2018-02-23T03:02:40.217Z,-0.43
2018-02-23T03:05:08.293Z,-0.52
2018-02-23T03:07:36.332Z,-0.51
2018-02-23T03:10:03.926Z,-0.44
2018-02-23T03:12:32.049Z,-0.39
2018-02-23T03:14:59.616Z,-0.51
2018-02-23T03:17:27.546Z,-0.55
2018-02-23T03:19:55.116Z,-0.59
2018-02-23T03:22:23.140Z,-0.60
2018-02-23T03:24:51.176Z,-0.56
2018-02-23T03:27:19.241Z,-0.50
2018-02-23T03:29:47.254Z,-0.54
2018-02-23T03:32:14.802Z,-0.51
2018-02-23T03:34:42.479Z,-0.54
2018-02-23T03:37:10.205Z,-0.61
2018-02-23T03:39:37.751Z,-0.56
2018-02-23T03:42:06.316Z,-0.62
2018-02-23T03:44:34.287Z,-0.63
2018-02-23T03:47:01.729Z,-0.74
2018-02-23T03:49:29.286Z,-0.72
2018-02-23T03:51:56.871Z,-0.71
2018-02-23T03:54:24.355Z,-0.72
2018-02-23T03:56:51.873Z,-0.74
2018-02-23T03:59:19.598Z,-0.77
2018-02-23T04:01:47.096Z,-0.79
2018-02-23T04:04:14.570Z,-0.90
2018-02-23T04:06:42.066Z,-0.82
2018-02-23T04:09:09.529Z,-0.73
2018-02-23T04:11:36.980Z,-0.82
2018-02-23T04:14:04.461Z,-0.87
2018-02-23T04:16:31.924Z,-0.87
2018-02-23T04:18:59.523Z,-0.92
2018-02-23T04:21:27.437Z,-0.98
2018-02-23T04:23:55.639Z,-0.93
2018-02-23T04:26:23.606Z,-1.05
2018-02-23T04:28:51.741Z,-1.08
2018-02-23T04:31:19.538Z,-1.08
2018-02-23T04:33:47.843Z,-1.04
2018-02-23T04:36:15.978Z,-1.08
2018-02-23T04:38:43.498Z,-1.07
2018-02-23T04:41:11.394Z,-1.02
2018-02-23T04:43:39.821Z,-1.10
2018-02-23T04:46:07.922Z,-1.11
2018-02-23T04:48:36.010Z,-1.21
2018-02-23T04:51:03.809Z,-1.23
2018-02-23T04:53:32.033Z,-1.19
2018-02-23T04:55:59.978Z,-1.13
2018-02-23T04:58:28.490Z,-1.31
2018-02-23T05:00:57.393Z,-1.30
2018-02-23T05:03:25.911Z,-1.37
2018-02-23T05:05:54.659Z,-1.42
2018-02-23T05:08:23.859Z,-1.41
2018-02-23T05:10:52.148Z,-1.46
2018-02-23T05:13:20.055Z,-1.47
2018-02-23T05:15:47.535Z,-1.56
2018-02-23T05:18:15.548Z,-1.64
2018-02-23T05:20:43.345Z,-1.71
2018-02-23T05:23:12.910Z,-1.78
2018-02-23T05:25:41.339Z,-1.85
2018-02-23T05:28:09.359Z,-1.91
2018-02-23T05:30:36.847Z,-1.97
2018-02-23T05:33:04.814Z,-2.10
2018-02-23T05:35:32.445Z,-2.21
2018-02-23T05:38:00.544Z,-2.32
2018-02-23T05:40:28.315Z,-2.47
2018-02-23T05:42:56.022Z,-2.53
2018-02-23T05:45:23.704Z,-2.60
2018-02-23T05:47:52.409Z,-2.68
2018-02-23T05:50:20.513Z,-2.73
2018-02-23T05:52:48.910Z,-2.82
2018-02-23T05:55:16.689Z,-2.86
2018-02-23T05:57:44.465Z,-2.92
2018-02-23T06:00:13.278Z,-2.96
2018-02-23T06:02:41.366Z,-2.98
2018-02-23T06:05:09.477Z,-3.05
2018-02-23T06:07:38.225Z,-3.09
2018-02-23T06:10:06.227Z,-3.11
2018-02-23T06:12:35.818Z,-3.12
2018-02-23T06:15:03.477Z,-3.20
2018-02-23T06:17:36.740Z,-3.18
2018-02-23T06:20:09.407Z,-3.17
2018-02-23T06:22:37.215Z,-3.16
2018-02-23T06:25:04.865Z,-3.14
2018-02-23T06:27:32.915Z,-3.17
2018-02-23T06:30:00.902Z,-3.15
2018-02-23T06:32:28.713Z,-3.11
2018-02-23T06:34:56.451Z,-3.15
2018-02-23T06:37:24.439Z,-3.10
2018-02-23T06:39:51.966Z,-3.09
2018-02-23T06:42:19.478Z,-3.07
2018-02-23T06:44:48.214Z,-3.02
2018-02-23T06:47:15.882Z,-3.03
2018-02-23T06:49:44.015Z,-3.02
2018-02-23T06:52:12.138Z,-3.00
2018-02-23T06:54:40.120Z,-3.03
2018-02-23T06:57:08.340Z,-3.03
2018-02-23T06:59:36.322Z,-2.99
2018-02-23T07:02:04.905Z,-2.90
2018-02-23T07:04:32.907Z,-2.77
2018-02-23T07:07:00.641Z,-2.63
2018-02-23T07:09:28.449Z,-2.36
2018-02-23T07:11:56.542Z,-2.15
2018-02-23T07:14:25.414Z,-2.08
2018-02-23T07:16:53.498Z,-1.92
2018-02-23T07:19:21.879Z,-1.95
2018-02-23T07:21:49.949Z,-1.87
2018-02-23T07:24:18.217Z,-1.61
2018-02-23T07:26:46.896Z,-1.52
2018-02-23T07:29:14.624Z,-1.53
2018-02-23T07:31:42.512Z,-1.38
2018-02-23T07:34:10.655Z,-1.45
2018-02-23T07:36:38.856Z,-1.25
2018-02-23T07:39:06.798Z,-1.27
2018-02-23T07:41:34.459Z,-1.32
2018-02-23T07:44:02.238Z,-1.35
2018-02-23T07:46:30.772Z,-1.22
2018-02-23T07:48:59.801Z,-1.02
2018-02-23T07:51:28.110Z,-0.98
2018-02-23T07:53:55.583Z,-0.92
2018-02-23T07:56:23.062Z,-0.88
2018-02-23T07:58:50.537Z,-0.79
2018-02-23T08:01:18.024Z,-0.77
2018-02-23T08:03:45.487Z,-0.84
2018-02-23T08:06:12.972Z,-0.59
2018-02-23T08:08:43.332Z,-0.63
2018-02-23T08:11:13.055Z,-0.52
2018-02-23T08:13:40.514Z,-0.46
2018-02-23T08:16:07.963Z,-0.15
2018-02-23T08:18:35.443Z,-0.29
2018-02-23T08:21:02.955Z,-0.10
2018-02-23T08:23:30.406Z,-0.06
2018-02-23T08:25:57.983Z,-0.11
2018-02-23T08:28:25.440Z,-0.01
2018-02-23T08:30:52.927Z,0.16
2018-02-23T08:33:20.414Z,0.01
2018-02-23T08:35:47.859Z,0.09
2018-02-23T08:38:15.312Z,0.16
2018-02-23T08:40:42.773Z,0.31
2018-02-23T08:43:10.231Z,0.37
2018-02-23T08:45:37.689Z,0.45
2018-02-23T08:48:05.154Z,0.55
2018-02-23T08:50:32.624Z,0.48
2018-02-23T08:53:00.117Z,0.44
2018-02-23T08:55:27.569Z,0.63
2018-02-23T08:57:55.024Z,0.54
2018-02-23T09:00:29.011Z,0.69
2018-02-23T09:02:56.465Z,0.57
2018-02-23T09:05:24.441Z,0.67
2018-02-23T09:07:53.077Z,0.60
2018-02-23T09:10:20.525Z,0.82
2018-02-23T09:12:48.056Z,0.59
2018-02-23T09:15:15.534Z,0.73
2018-02-23T09:17:42.997Z,1.01
2018-02-23T09:20:10.475Z,0.83
2018-02-23T09:22:37.927Z,0.69
2018-02-23T09:25:05.400Z,1.00
2018-02-23T09:27:32.875Z,1.34
2018-02-23T09:30:00.394Z,1.28
2018-02-23T09:32:35.552Z,1.31
2018-02-23T09:35:03.027Z,1.32
2018-02-23T09:37:30.490Z,1.36
2018-02-23T09:39:57.967Z,1.89
2018-02-23T09:42:25.417Z,1.74
2018-02-23T09:44:52.918Z,1.82
2018-02-23T09:47:20.377Z,1.85
2018-02-23T09:49:47.858Z,1.70
2018-02-23T09:52:15.334Z,1.66
2018-02-23T09:54:42.769Z,1.83
2018-02-23T09:57:10.231Z,1.87
2018-02-23T09:59:37.690Z,2.06
2018-02-23T10:02:05.152Z,2.05
2018-02-23T10:04:32.630Z,2.01
2018-02-23T10:07:00.112Z,1.99
2018-02-23T10:09:27.575Z,2.06
2018-02-23T10:11:55.080Z,1.86
2018-02-23T10:14:22.539Z,2.13
2018-02-23T10:16:49.990Z,2.09
2018-02-23T10:19:17.447Z,2.23
2018-02-23T10:21:44.906Z,2.58
2018-02-23T10:24:12.381Z,2.84
2018-02-23T10:26:39.838Z,2.86
2018-02-23T10:29:07.372Z,2.83
2018-02-23T10:31:34.857Z,2.76
2018-02-23T10:34:02.313Z,2.71
2018-02-23T10:36:29.768Z,2.91
2018-02-23T10:38:57.266Z,2.87
2018-02-23T10:41:24.789Z,3.18
2018-02-23T10:43:53.507Z,3.04
2018-02-23T10:46:20.965Z,3.24
2018-02-23T10:48:48.421Z,3.25
2018-02-23T10:51:15.888Z,3.35
2018-02-23T10:53:43.379Z,3.16
2018-02-23T10:56:10.881Z,2.84
2018-02-23T10:58:38.334Z,2.80
2018-02-23T11:01:05.804Z,3.21
2018-02-23T11:03:33.299Z,3.29
2018-02-23T11:06:00.770Z,3.08
2018-02-23T11:08:28.283Z,3.10
2018-02-23T11:10:55.763Z,3.23
2018-02-23T11:13:23.270Z,3.18
2018-02-23T11:15:50.732Z,3.14
2018-02-23T11:18:18.207Z,3.27
2018-02-23T11:20:45.676Z,3.66
2018-02-23T11:23:13.505Z,3.51
2018-02-23T11:25:41.026Z,3.87
2018-02-23T11:28:08.513Z,3.59
2018-02-23T11:30:35.981Z,3.83
2018-02-23T11:33:03.496Z,4.03
2018-02-23T11:35:30.963Z,4.27
2018-02-23T11:37:58.442Z,4.23
2018-02-23T11:40:25.914Z,4.18
2018-02-23T11:42:53.440Z,4.43
2018-02-23T11:45:20.914Z,4.57
2018-02-23T11:47:48.370Z,4.14
2018-02-23T11:50:15.888Z,4.23
2018-02-23T11:52:43.985Z,4.80
2018-02-23T11:55:11.570Z,4.62
2018-02-23T11:57:45.041Z,4.46
2018-02-23T12:00:12.549Z,4.45
2018-02-23T12:02:40.018Z,4.30
2018-02-23T12:05:07.476Z,4.31
2018-02-23T12:07:34.940Z,4.32
2018-02-23T12:10:02.402Z,4.71
2018-02-23T12:12:29.905Z,5.13
2018-02-23T12:14:57.383Z,5.30
2018-02-23T12:17:24.843Z,5.50
2018-02-23T12:19:52.316Z,5.52
2018-02-23T12:22:19.765Z,5.79
2018-02-23T12:24:47.223Z,5.66
2018-02-23T12:27:14.683Z,5.48
2018-02-23T12:29:42.156Z,5.51
2018-02-23T12:32:09.647Z,5.70
2018-02-23T12:34:37.148Z,5.76
2018-02-23T12:37:04.623Z,6.43
2018-02-23T12:39:32.083Z,6.27
2018-02-23T12:41:59.563Z,6.49
2018-02-23T12:44:27.040Z,6.57
2018-02-23T12:46:54.522Z,7.21
2018-02-23T12:49:22.029Z,7.76
2018-02-23T12:51:49.552Z,7.85
2018-02-23T12:54:17.187Z,7.35
2018-02-23T12:56:44.728Z,7.19
2018-02-23T12:59:12.219Z,7.12
2018-02-23T13:01:39.678Z,7.60
2018-02-23T13:04:07.148Z,7.17
2018-02-23T13:06:34.664Z,7.12
2018-02-23T13:09:02.156Z,6.65
2018-02-23T13:11:29.621Z,6.61
2018-02-23T13:13:57.094Z,6.84
2018-02-23T13:16:29.367Z,6.87
2018-02-23T13:18:56.828Z,6.93
2018-02-23T13:21:24.289Z,6.47
2018-02-23T13:23:51.755Z,7.44
2018-02-23T13:26:19.231Z,7.01
2018-02-23T13:28:46.696Z,7.42
2018-02-23T13:31:14.724Z,6.71
2018-02-23T13:33:43.299Z,6.75
2018-02-23T13:36:10.798Z,6.65
2018-02-23T13:38:38.310Z,7.05
2018-02-23T13:55:30.049Z,5.67
2018-02-23T13:57:57.653Z,5.26
2018-02-23T14:00:25.651Z,5.37
2018-02-23T14:02:55.213Z,5.26
2018-02-23T14:05:25.525Z,5.19
2018-02-23T14:08:05.982Z,5.27
2018-02-23T14:10:33.754Z,5.20
2018-02-23T14:13:01.328Z,5.11
2018-02-23T14:15:42.234Z,4.96
2018-02-23T14:18:09.937Z,5.21
2018-02-23T14:20:41.392Z,5.07
2018-02-23T14:23:09.541Z,4.99
2018-02-23T14:25:37.014Z,4.83
2018-02-23T14:28:04.484Z,4.67
2018-02-23T14:30:31.934Z,4.72
2018-02-23T14:32:59.395Z,4.46
2018-02-23T14:35:26.884Z,4.49
2018-02-23T14:46:32.971Z,4.65
2018-02-23T14:49:12.255Z,4.57
2018-02-23T14:51:40.030Z,4.42
2018-02-23T14:54:07.524Z,4.31
2018-02-23T14:56:34.991Z,4.40
2018-02-23T14:59:02.443Z,4.31
2018-02-23T15:01:30.023Z,4.25
2018-02-23T15:03:57.516Z,4.34
2018-02-23T15:06:25.078Z,4.22
2018-02-23T15:08:52.559Z,3.99
2018-02-23T15:11:20.014Z,4.06
2018-02-23T15:13:47.475Z,3.97
2018-02-23T15:16:15.461Z,3.95
2018-02-23T15:18:44.037Z,3.85
2018-02-23T15:21:11.499Z,3.67
2018-02-23T15:23:38.949Z,3.61
2018-02-23T15:26:06.403Z,3.80
2018-02-23T15:28:33.907Z,3.78
2018-02-23T15:31:13.111Z,3.71
2018-02-23T15:33:40.578Z,3.76
2018-02-23T15:36:08.021Z,3.77
2018-02-23T15:38:35.976Z,3.78
2018-02-23T15:41:03.786Z,3.68
2018-02-23T15:43:31.255Z,3.55
2018-02-23T15:45:58.714Z,3.54
2018-02-23T15:51:33.852Z,3.30
2018-02-23T15:54:01.299Z,3.18
2018-02-23T15:56:28.770Z,3.18
2018-02-23T15:58:56.239Z,3.19
2018-02-23T16:01:23.854Z,3.14
2018-02-23T16:03:51.307Z,3.12
2018-02-23T16:06:18.759Z,3.03
2018-02-23T16:08:46.236Z,3.03
2018-02-23T16:11:13.693Z,3.02
2018-02-23T16:13:41.146Z,3.02
2018-02-23T16:16:08.601Z,2.95
2018-02-23T16:18:36.068Z,3.00
2018-02-23T16:21:03.650Z,2.80
2018-02-23T16:23:31.096Z,2.80
2018-02-23T16:25:58.547Z,2.85
2018-02-23T16:28:26.018Z,2.79
2018-02-23T16:30:53.466Z,2.77
2018-02-23T16:33:20.918Z,2.65
2018-02-23T16:35:48.358Z,2.67
2018-02-23T16:38:15.849Z,2.62
2018-02-23T16:40:43.295Z,2.51
2018-02-23T16:43:10.754Z,2.50
2018-02-23T16:45:38.224Z,2.55
2018-02-23T16:48:05.683Z,2.55
2018-02-23T16:50:33.154Z,2.57
2018-02-23T16:53:01.194Z,2.56
2018-02-23T16:55:28.635Z,2.55
2018-02-23T16:57:56.208Z,2.59
2018-02-23T17:00:23.673Z,2.56
2018-02-23T17:02:51.175Z,2.51
2018-02-23T17:05:18.740Z,2.53
2018-02-23T17:07:46.194Z,2.50
2018-02-23T17:10:13.650Z,2.45
2018-02-23T17:12:41.141Z,2.45
2018-02-23T17:15:08.900Z,2.41
2018-02-23T17:17:36.680Z,2.41
2018-02-23T17:20:08.079Z,2.42
2018-02-23T17:22:41.746Z,2.46
2018-02-23T17:25:09.333Z,2.41
2018-02-23T17:27:36.858Z,2.35
2018-02-23T17:30:04.749Z,2.44
2018-02-23T17:32:32.225Z,2.38
2018-02-23T17:34:59.677Z,2.32
2018-02-23T17:37:27.162Z,2.37
2018-02-23T17:39:54.634Z,2.31
2018-02-23T17:42:22.091Z,2.29
2018-02-23T17:44:49.564Z,2.36
2018-02-23T17:47:17.063Z,2.28
2018-02-23T17:49:44.527Z,2.27
2018-02-23T17:52:11.988Z,2.30
2018-02-23T17:54:39.442Z,2.24
2018-02-23T17:57:06.878Z,2.24
2018-02-23T17:59:34.362Z,2.25
2018-02-23T18:02:01.808Z,2.28
2018-02-23T18:04:29.259Z,2.29
2018-02-23T18:06:57.209Z,2.31
2018-02-23T18:09:24.674Z,2.23
2018-02-23T18:11:52.143Z,2.26
2018-02-23T18:14:19.597Z,2.27
2018-02-23T18:16:47.058Z,2.17
2018-02-23T18:19:14.555Z,2.13
2018-02-23T18:21:42.017Z,2.09
2018-02-23T18:24:09.485Z,2.13
2018-02-23T18:26:36.954Z,2.15
2018-02-23T18:29:04.425Z,2.05
2018-02-23T18:31:31.867Z,2.06
2018-02-23T18:33:59.313Z,2.08
2018-02-23T18:36:26.774Z,2.00
2018-02-23T18:38:54.277Z,1.95
2018-02-23T18:41:22.118Z,1.89
2018-02-23T18:43:49.646Z,1.89
2018-02-23T18:46:17.107Z,1.87
2018-02-23T18:48:44.619Z,1.79
2018-02-23T18:51:12.130Z,1.77
2018-02-23T18:53:39.622Z,1.78
2018-02-23T18:56:07.107Z,1.75
2018-02-23T18:58:34.611Z,1.75
2018-02-23T19:01:02.162Z,1.72
2018-02-23T19:03:29.614Z,1.73
2018-02-23T19:11:42.886Z,1.71
2018-02-23T19:14:10.372Z,1.72
2018-02-23T19:16:37.974Z,1.73
2018-02-23T19:19:05.510Z,1.77
2018-02-23T19:21:33.108Z,1.78
2018-02-23T19:24:00.758Z,1.66
2018-02-23T19:26:28.241Z,1.71
2018-02-23T19:28:55.685Z,1.68
2018-02-23T19:31:23.139Z,1.60
2018-02-23T19:33:50.596Z,1.57
2018-02-23T19:36:18.276Z,1.50
2018-02-23T19:38:45.841Z,1.47
2018-02-23T19:41:13.383Z,1.47
2018-02-23T19:43:40.902Z,1.57
2018-02-23T19:46:08.365Z,1.50
2018-02-23T19:48:35.947Z,1.51
2018-02-23T19:51:03.385Z,1.52
2018-02-23T19:53:30.903Z,1.57
2018-02-23T19:55:58.385Z,1.59
2018-02-23T19:58:25.833Z,1.60
2018-02-23T20:00:53.305Z,1.64
2018-02-23T20:03:20.799Z,1.65
2018-02-23T20:05:48.242Z,1.72
2018-02-23T20:08:15.759Z,1.64
2018-02-23T20:10:43.174Z,1.68
2018-02-23T20:13:10.626Z,1.66
2018-02-23T20:15:38.106Z,1.61
2018-02-23T20:18:05.568Z,1.64
2018-02-23T20:20:33.207Z,1.63
2018-02-23T20:23:00.671Z,1.60
2018-02-23T20:25:28.135Z,1.61
2018-02-23T20:27:55.595Z,1.60
2018-02-23T20:30:23.049Z,1.62
2018-02-23T20:32:50.502Z,1.55
2018-02-23T20:35:18.031Z,1.56
2018-02-23T20:37:45.489Z,1.56
2018-02-23T20:40:12.929Z,1.59
2018-02-23T20:42:40.386Z,1.54
2018-02-23T20:45:07.825Z,1.48
2018-02-23T20:47:35.311Z,1.48
2018-02-23T20:50:02.770Z,1.45
2018-02-23T20:52:30.220Z,1.51
2018-02-23T20:54:57.674Z,1.50
2018-02-23T20:57:25.135Z,1.48
2018-02-23T20:59:52.616Z,1.46
2018-02-23T21:02:20.067Z,1.39
2018-02-23T21:04:47.507Z,1.41
2018-02-23T21:07:15.067Z,1.37
2018-02-23T21:09:42.576Z,1.34
2018-02-23T21:12:10.116Z,1.35
2018-02-23T21:14:37.559Z,1.36
2018-02-23T21:17:05.004Z,1.32
2018-02-23T21:19:32.490Z,1.36
2018-02-23T21:21:59.936Z,1.38
2018-02-23T21:24:27.375Z,1.32
2018-02-23T21:26:54.849Z,1.35
2018-02-23T21:29:22.293Z,1.35
2018-02-23T21:31:49.902Z,1.43
2018-02-23T21:34:17.383Z,1.34
2018-02-23T21:36:44.867Z,1.32
2018-02-23T21:39:12.326Z,1.29
2018-02-23T21:41:51.664Z,1.31
2018-02-23T21:44:19.119Z,1.22
2018-02-23T21:46:46.670Z,1.23
2018-02-23T21:49:14.224Z,1.22
2018-02-23T21:51:41.717Z,1.09
2018-02-23T21:54:09.177Z,1.15
2018-02-23T21:56:36.652Z,1.13
2018-02-23T21:59:04.524Z,1.11
2018-02-23T22:01:31.974Z,1.08
2018-02-23T22:03:59.567Z,1.14
2018-02-23T22:06:27.035Z,1.11
2018-02-23T22:08:54.523Z,1.16
2018-02-23T22:11:21.986Z,1.20
2018-02-23T22:13:49.449Z,1.16
2018-02-23T22:16:16.910Z,1.21
2018-02-23T22:18:44.364Z,1.15
2018-02-23T22:21:11.835Z,1.05
2018-02-23T22:23:39.423Z,1.03
2018-02-23T22:26:06.882Z,1.06
2018-02-23T22:28:34.371Z,1.05
2018-02-23T22:31:01.859Z,0.97
2018-02-23T22:33:29.336Z,0.97
2018-02-23T22:35:56.832Z,0.89
2018-02-23T22:38:24.404Z,0.88
2018-02-23T22:40:51.898Z,0.84
2018-02-23T22:43:19.358Z,0.83
2018-02-23T22:45:46.802Z,0.73
2018-02-23T22:48:14.415Z,0.81
2018-02-23T22:50:42.766Z,0.76
2018-02-23T22:53:12.489Z,0.82
2018-02-23T22:55:41.574Z,0.78
2018-02-23T22:58:10.126Z,0.78
2018-02-23T23:00:43.154Z,0.80
2018-02-23T23:03:19.178Z,0.80
2018-02-23T23:05:51.628Z,0.79
2018-02-23T23:08:20.358Z,0.74
2018-02-23T23:10:48.948Z,0.75
2018-02-23T23:13:19.296Z,0.71
2018-02-23T23:15:46.900Z,0.75
2018-02-23T23:18:16.830Z,0.71
2018-02-23T23:20:45.317Z,0.72
2018-02-23T23:23:12.766Z,0.72
2018-02-23T23:25:40.313Z,0.76
2018-02-23T23:28:08.012Z,0.70
2018-02-23T23:30:35.550Z,0.64
2018-02-23T23:33:03.076Z,0.57
2018-02-23T23:35:31.598Z,0.56
2018-02-23T23:37:59.161Z,0.59
2018-02-23T23:40:26.895Z,0.57
2018-02-23T23:42:54.354Z,0.58
2018-02-23T23:45:21.842Z,0.59
2018-02-23T23:47:49.323Z,0.54
2018-02-23T23:50:16.763Z,0.56
2018-02-23T23:52:44.226Z,0.58
2018-02-23T23:55:11.735Z,0.54
2018-02-23T23:57:40.547Z,0.59
